Airfield :
LOGIN :

Register | Disclaimer

   EN    FR    IT 

 










Legend :    VFR   Marginal VFR   IFR   Intensive IFR   Very Intensive IFR
Visi :
Ceiling :
>= 8 km
>= 3000ft
5 to 8 km
1000 to 3000 ft
1500m to 5 km
500 to 1000 ft
800 to 1500m
200 to 500 ft
< 800m
< 200 ft
Symbols :   Thunderstorms  Fog  Heavy snow  Heavy precipitations  Wind > 20 kt
SIGMETs :     Misc.  Thunderstorms  Icing  Turbulence  Mountain Waves  Volcanic Ashes







- Airport Elevation : 288 ft
- IATA code : BZZ


EGVN - RAF Brize Norton

CURRENT METAR :
  • 160650Z 23003KT 7000 RA FEW010 SCT035 BKN060 16/15 Q1011 TEMPO 4000 RA SCT010

EXPIRED METARs :
  • 160633Z 22004KT 6000 RA FEW005 BKN010 BKN040 16/15 Q1012 GRN TEMPO 3000 RA SCT005 YLO1
  • 160537Z 22010KT 3000 RA BKN005 BKN012 17/16 Q1012 YLO1 TEMPO 2000 +RA YLO2
  • 160516Z 21008KT 5000 RA BKN007 BKN015 17/16 Q1011 GRN TEMPO 4000 BKN006 YLO1
  • 160450Z 21009KT 9999 BKN007 OVC012 17/16 Q1011 GRN TEMPO 4000 RA BKN006 YLO1

TAF AMD TAF EGVN
Valid from the 16 at 07:00 until the 17 at 06:00 UTC


160728Z 1607/1706 23012KT 9999 -RA FEW010 BKN035
TEMPO 1607/1610 4000 RA BKN008
PROB40
TEMPO 1607/1610 2000 +RA BKN004
No reported NOTAMs for that airfield.



MET'MAP, your aeronautical weather chart ! - Copyright ORBIFLY December 2007 - Disclaimer

ORBIFLY MET'MAP TEAM :

Programming & Development : Alexandra Zaïnal
Concept & Development : Baudouin d'Aumeries
Co-Development & Prog : Marc-Olivier Méhu
Technical & hardware support : Manuel Goepfert

Contact : metmap@orbifly.com




SOURCES & CREDITS :

   NOAA